Decoded Metar for CYNE (NORWAY HOUSE ARP in MB, CANADA) (IATA:YNE) | Meteo·Mobile Aviation Weather
aviador You're here:

CYNE Decoded Metar

NORWAY HOUSE ARP in MB, CANADA
Report Time2019-02-16 06:42:00
UTC Time2019-02-16 06:57:59
Flight Rules vfr VFR
WindCalm
Visibility9999 m
Phenomena:N/A
Clouds:N/A
Expected CloudBase > 1,200 ft AGL from Temp-Dew spread
CeilingNone
Temp-26°C (ISA -40)
Dew Point-29°C (76% RH)
AAT-29.8°C
QNH1021 hPa
Density Alt-4,665 ft
Elevation732 ft
Report Wrong Elevation
Raw Report
SPECI CYNE 160642Z AUTO 00000KT 7SM CLR M26/M29 A3014 RMK SLP236=

Extra information for CYNE:More info

Metar Taf Metar & Taf Last 4 Metars F.Rules Stats Wind Profile Meteogram Temp Stats Airport Information Weather charts Add Link Nearby VenuesMetar ALERT Operation Metar Decoded Social comments